Time;durP1;ratioP1;P1;durP2;ratioP2;P2;SDS_P1;SDS_P2;PMS_P1;PMS_P2;Temp;Humidity;BMP_temperature;BMP_pressure;BME280_temperature;BME280_humidity;BME280_pressure;Samples;Min_cycle;Max_cycle;Signal;HPM_P1;HPM_P2
2022/10/21 00:01:12;;;;;;;15.73;10.90;;;;;;;9.57;60.01;100413.13;5076131;28;20028;-93
2022/10/21 00:03:38;;;;;;;59.00;48.13;;;;;;;8.94;62.64;100421.66;5077885;28;20091;-91
2022/10/21 00:06:04;;;;;;;71.63;59.42;;;;;;;8.24;64.84;100421.91;5077521;28;20402;-92
2022/10/21 00:08:29;;;;;;;40.17;32.70;;;;;;;8.46;65.04;100406.63;5077352;28;20067;-92
2022/10/21 00:10:57;;;;;;;30.67;21.98;;;;;;;8.87;63.87;100413.66;5077343;28;20039;-92
2022/10/21 00:13:24;;;;;;;29.92;18.65;;;;;;;9.17;62.50;100413.47;5077292;28;20038;-93
2022/10/21 00:16:05;;;;;;;25.20;18.23;;;;;;;9.27;61.55;100386.25;5077211;28;20028;-92
2022/10/21 00:18:32;;;;;;;22.83;17.30;;;;;;;9.67;60.97;100413.78;5077211;28;20117;-92
2022/10/21 00:20:58;;;;;;;44.50;35.53;;;;;;;9.61;61.17;100415.00;5077151;28;20032;-92
2022/10/21 00:23:24;;;;;;;46.10;33.08;;;;;;;9.60;60.55;100410.56;5076866;28;20039;-92
2022/10/21 00:25:57;;;;;;;43.05;31.10;;;;;;;9.61;59.91;100391.84;5076697;28;20036;-92
2022/10/21 00:28:23;;;;;;;36.08;26.42;;;;;;;9.60;59.97;100418.13;5076711;28;20062;-92
2022/10/21 00:30:48;;;;;;;33.55;20.83;;;;;;;9.64;59.56;100403.22;5077034;28;20028;-92
2022/10/21 00:33:14;;;;;;;28.30;17.27;;;;;;;9.61;60.01;100412.22;5076669;28;20109;-92
2022/10/21 00:35:39;;;;;;;21.02;15.43;;;;;;;9.47;60.85;100400.16;5076972;28;20028;-92
2022/10/21 00:38:06;;;;;;;22.15;13.75;;;;;;;9.48;61.02;100405.47;5076564;28;20031;-92
2022/10/21 00:40:32;;;;;;;26.30;12.88;;;;;;;9.49;60.79;100412.69;5076669;28;20445;-92
2022/10/21 00:42:58;;;;;;;15.88;11.27;;;;;;;9.46;61.78;100407.69;5076510;28;20125;-92
2022/10/21 00:45:27;;;;;;;22.17;11.88;;;;;;;9.58;61.10;100412.00;5094691;28;20042;-92
2022/10/21 00:48:08;;;;;;;19.02;13.50;;;;;;;9.52;60.66;100412.09;5076534;28;20031;-93
2022/10/21 00:50:38;;;;;;;16.65;12.13;;;;;;;9.46;61.33;100407.69;5076468;28;20133;-92
2022/10/21 00:53:06;;;;;;;;;;;;;;;9.38;61.30;100412.03;5077294;28;20058;-92
2022/10/21 00:55:35;;;;;;;16.42;12.15;;;;;;;9.26;60.47;100384.59;5076261;28;19908;-93
2022/10/21 00:58:01;;;;;;;22.60;13.73;;;;;;;9.39;60.65;100387.72;5076173;28;20032;-93
2022/10/21 01:00:27;;;;;;;22.02;13.73;;;;;;;9.40;60.40;100404.16;5076601;28;20028;-92
2022/10/21 01:02:52;;;;;;;21.58;13.75;;;;;;;9.30;60.30;100404.34;5076168;28;20035;-92
2022/10/21 01:05:18;;;;;;;20.98;13.93;;;;;;;8.66;62.35;100385.19;5076107;28;20028;-92
2022/10/21 01:07:49;;;;;;;21.73;13.48;;;;;;;8.93;61.98;100406.00;5076119;28;20506;-92
2022/10/21 01:10:15;;;;;;;19.45;13.00;;;;;;;9.09;60.88;100407.47;5076104;28;20032;-92
2022/10/21 01:13:09;;;;;;;23.65;13.70;;;;;;;9.07;61.98;100404.13;5075376;28;20366;-92
2022/10/21 01:15:41;;;;;;;22.40;13.57;;;;;;;8.98;61.90;100414.31;5034084;28;20036;-92
2022/10/21 01:18:40;;;;;;;21.98;12.98;;;;;;;9.10;60.90;100405.47;5093800;28;20031;-92
2022/10/21 01:21:20;;;;;;;28.48;13.95;;;;;;;9.10;60.87;100413.84;5075752;28;20031;-92
2022/10/21 01:23:54;;;;;;;24.45;12.52;;;;;;;9.00;61.12;100400.88;5093749;28;20039;-92
2022/10/21 01:26:58;;;;;;;22.90;12.55;;;;;;;8.89;61.08;100388.22;5075743;28;20501;-93
2022/10/21 01:30:00;;;;;;;23.00;13.80;;;;;;;9.02;60.77;100404.19;4975832;28;20527;-92
2022/10/21 01:32:31;;;;;;;24.23;13.30;;;;;;;8.96;61.58;100408.22;4992450;28;20101;-92
2022/10/21 01:35:11;;;;;;;20.90;11.27;;;;;;;9.07;60.72;100415.31;5067773;28;20060;-92
2022/10/21 01:37:55;;;;;;;20.73;12.98;;;;;;;9.02;60.71;100414.56;5075593;28;20085;-92
2022/10/21 01:40:42;;;;;;;15.80;10.60;;;;;;;9.04;60.44;100396.34;5075486;28;20039;-92
2022/10/21 01:43:23;;;;;;;16.48;10.45;;;;;;;9.12;61.06;100406.84;5075433;28;20501;-92
2022/10/21 01:45:53;;;;;;;18.38;11.25;;;;;;;9.12;61.41;100406.84;5075331;28;20058;-92
2022/10/21 01:48:26;;;;;;;17.85;10.38;;;;;;;9.11;60.98;100418.28;5075507;28;20074;-92
2022/10/21 01:50:59;;;;;;;15.48;10.20;;;;;;;9.12;60.54;100420.81;5075307;28;20020;-93
2022/10/21 01:53:28;;;;;;;20.67;10.63;;;;;;;9.06;61.42;100424.81;5075144;28;20023;-92
2022/10/21 01:55:57;;;;;;;16.52;10.85;;;;;;;8.52;62.45;100429.72;5075282;28;20026;-92
2022/10/21 01:58:28;;;;;;;20.90;10.60;;;;;;;8.18;63.87;100431.44;5075159;28;20050;-91
2022/10/21 02:00:57;;;;;;;16.98;9.98;;;;;;;8.04;65.16;100433.28;5075240;28;20024;-91
2022/10/21 02:03:27;;;;;;;17.77;10.80;;;;;;;7.45;67.33;100434.91;5074773;28;20055;-92
2022/10/21 02:05:53;;;;;;;27.35;10.43;;;;;;;6.96;68.51;100407.97;5074989;28;20099;-92
2022/10/21 02:08:19;;;;;;;17.13;10.85;;;;;;;7.06;68.80;100419.03;5074934;28;20575;-93
2022/10/21 02:10:48;;;;;;;22.00;10.30;;;;;;;7.52;66.22;100431.78;5074965;28;20438;-92
2022/10/21 02:13:19;;;;;;;22.60;12.80;;;;;;;7.00;68.27;100431.34;5092995;28;20024;-93
2022/10/21 02:15:45;;;;;;;24.63;13.88;;;;;;;7.13;68.73;100432.63;5074910;28;20024;-93
2022/10/21 02:18:23;;;;;;;24.45;13.80;;;;;;;6.99;68.86;100438.84;5074745;28;20024;-93
2022/10/21 02:20:55;;;;;;;17.13;11.38;;;;;;;6.92;69.05;100407.72;5074922;28;20024;-92
2022/10/21 02:23:29;;;;;;;23.77;12.63;;;;;;;7.29;68.69;100445.31;5073889;28;20517;-92
2022/10/21 02:25:55;;;;;;;15.07;11.32;;;;;;;7.44;66.44;100421.28;5092638;28;20023;-92
2022/10/21 02:28:20;;;;;;;18.17;11.48;;;;;;;7.60;64.21;100438.69;5074501;28;20048;-93
2022/10/21 02:30:56;;;;;;;26.27;11.95;;;;;;;7.71;63.22;100450.56;5074658;28;20520;-92
2022/10/21 02:34:08;;;;;;;25.67;12.43;;;;;;;7.68;63.55;100446.41;5075033;28;20028;-92
2022/10/21 02:36:38;;;;;;;18.00;11.88;;;;;;;7.64;63.54;100439.78;5074690;28;20024;-93
2022/10/21 02:39:13;;;;;;;21.65;13.30;;;;;;;7.76;63.26;100449.72;5074658;28;20483;-93
2022/10/21 02:41:41;;;;;;;18.63;13.45;;;;;;;7.67;63.17;100441.16;5074631;28;20031;-92
2022/10/21 02:44:07;;;;;;;16.55;12.32;;;;;;;7.64;63.71;100450.91;5074447;28;20487;-92
2022/10/21 02:46:39;;;;;;;20.60;13.25;;;;;;;7.48;63.82;100433.50;5074437;28;20078;-92
2022/10/21 02:49:05;;;;;;;22.58;13.15;;;;;;;7.45;63.88;100428.50;5074388;28;20056;-92
2022/10/21 02:51:30;;;;;;;20.92;14.77;;;;;;;7.65;64.09;100466.50;5074442;28;20028;-92
2022/10/21 02:53:56;;;;;;;23.17;14.73;;;;;;;7.73;64.00;100453.91;5074436;28;20024;-92
2022/10/21 02:56:21;;;;;;;26.83;15.02;;;;;;;7.90;63.43;100464.59;5074850;28;20020;-91
2022/10/21 02:58:47;;;;;;;30.08;17.35;;;;;;;7.95;63.86;100469.31;5074500;28;20016;-92
2022/10/21 03:01:12;;;;;;;58.80;22.63;;;;;;;7.96;64.10;100463.44;5074576;28;20020;-92
2022/10/21 03:03:38;;;;;;;32.88;17.63;;;;;;;7.72;63.66;100444.72;5092071;28;20028;-92
2022/10/21 03:06:03;;;;;;;24.90;14.75;;;;;;;7.82;63.74;100477.22;5074151;28;20028;-92
2022/10/21 03:08:28;;;;;;;17.17;12.18;;;;;;;7.57;63.02;100478.25;5074352;28;20055;-93
2022/10/21 03:10:54;;;;;;;34.97;13.50;;;;;;;7.46;62.04;100460.81;5074285;28;20020;-92
2022/10/21 03:13:21;;;;;;;21.33;13.05;;;;;;;7.54;62.56;100479.69;5074291;28;20024;-92
2022/10/21 03:15:48;;;;;;;19.55;12.32;;;;;;;7.53;62.76;100475.19;5074036;28;20020;-93
2022/10/21 03:18:13;;;;;;;20.08;13.60;;;;;;;7.43;62.97;100466.94;5074317;28;20063;-92
2022/10/21 03:20:39;;;;;;;24.08;13.85;;;;;;;7.31;63.22;100453.38;5074110;28;20027;-93
2022/10/21 03:23:04;;;;;;;22.35;12.50;;;;;;;7.46;63.32;100471.94;5074110;28;20024;-92
2022/10/21 03:25:30;;;;;;;25.63;12.80;;;;;;;7.24;63.82;100452.88;5074036;28;20024;-93
2022/10/21 03:27:55;;;;;;;22.10;14.05;;;;;;;7.35;63.88;100465.59;5091761;28;20048;-92
2022/10/21 03:30:21;;;;;;;23.08;13.05;;;;;;;6.94;65.29;100460.28;5074096;28;20024;-93
2022/10/21 03:32:46;;;;;;;21.27;14.25;;;;;;;6.81;67.77;100465.34;5074059;28;20537;-92
2022/10/21 03:35:11;;;;;;;22.65;13.45;;;;;;;6.97;67.82;100479.19;5076514;28;20375;-93
2022/10/21 03:37:37;;;;;;;32.13;17.73;;;;;;;6.98;67.50;100458.59;5077710;28;20016;-92
2022/10/21 03:40:04;;;;;;;50.22;26.15;;;;;;;7.18;67.49;100476.28;5077732;28;20070;-92
2022/10/21 03:42:29;;;;;;;31.90;18.35;;;;;;;7.11;67.74;100466.28;5077686;28;20512;-92
2022/10/21 03:44:55;;;;;;;24.77;14.98;;;;;;;7.33;67.32;100472.59;5077642;28;20020;-92
2022/10/21 03:47:20;;;;;;;27.33;14.52;;;;;;;7.33;65.91;100453.91;5077818;28;20466;-93
2022/10/21 03:49:46;;;;;;;24.17;14.90;;;;;;;7.32;65.94;100457.81;5077536;28;20020;-92
2022/10/21 03:52:11;;;;;;;22.15;14.52;;;;;;;7.55;65.66;100480.50;5078015;28;20020;-93
2022/10/21 03:54:36;;;;;;;21.02;13.15;;;;;;;7.71;65.96;100481.22;5077656;28;20023;-93
2022/10/21 03:57:02;;;;;;;20.33;13.90;;;;;;;7.75;65.75;100473.09;5077419;28;20023;-92
2022/10/21 03:59:27;;;;;;;20.50;13.43;;;;;;;7.71;65.46;100456.97;5077474;28;20474;-92
2022/10/21 04:01:53;;;;;;;27.88;15.93;;;;;;;7.80;65.35;100481.41;5077443;28;20114;-92
2022/10/21 04:04:18;;;;;;;30.15;14.98;;;;;;;7.87;64.70;100479.13;5077473;28;20020;-92
2022/10/21 04:06:44;;;;;;;28.55;15.27;;;;;;;7.84;64.17;100479.69;5077220;28;20497;-92
2022/10/21 04:09:09;;;;;;;37.75;16.38;;;;;;;7.62;64.16;100464.31;5077386;28;20407;-91
2022/10/21 04:11:35;;;;;;;36.45;16.55;;;;;;;7.09;63.85;100476.06;5077180;28;20121;-92
2022/10/21 04:14:01;;;;;;;32.58;18.00;;;;;;;7.28;63.80;100465.91;5077283;28;20024;-93
2022/10/21 04:16:26;;;;;;;29.40;18.83;;;;;;;7.30;63.57;100468.41;5095099;28;20028;-93
2022/10/21 04:18:52;;;;;;;28.60;16.25;;;;;;;7.25;63.44;100472.06;5077462;28;20028;-92
2022/10/21 04:21:17;;;;;;;37.13;18.80;;;;;;;7.16;62.65;100477.41;5077114;28;20020;-92
2022/10/21 04:23:43;;;;;;;29.00;16.33;;;;;;;7.19;62.81;100480.75;5077042;28;20051;-92
2022/10/21 04:26:10;;;;;;;35.42;16.35;;;;;;;7.21;62.84;100487.69;5076777;28;20023;-92
2022/10/21 04:28:35;;;;;;;36.78;16.00;;;;;;;7.11;63.22;100485.78;5076778;28;20050;-92
2022/10/21 04:31:01;;;;;;;24.40;15.73;;;;;;;7.12;63.67;100473.56;5076914;28;20059;-92
2022/10/21 04:33:27;;;;;;;25.77;15.00;;;;;;;7.09;63.45;100485.22;5077021;28;20027;-92
2022/10/21 04:35:53;;;;;;;34.40;16.10;;;;;;;7.04;64.23;100476.94;5076643;28;20410;-93
2022/10/21 04:38:19;;;;;;;62.35;18.13;;;;;;;7.17;63.67;100475.44;5094730;28;20040;-93
2022/10/21 04:40:45;;;;;;;65.25;23.20;;;;;;;7.20;63.33;100476.84;5094762;28;20035;-93
2022/10/21 04:43:10;;;;;;;92.50;22.83;;;;;;;7.17;63.44;100475.44;5094633;28;20027;-92
2022/10/21 04:45:39;;;;;;;80.93;20.77;;;;;;;7.03;64.35;100458.56;5093656;28;20085;-92
2022/10/21 04:48:05;;;;;;;60.67;18.50;;;;;;;6.99;63.87;100466.66;5076409;28;20027;-92
2022/10/21 04:50:33;;;;;;;52.33;18.40;;;;;;;7.13;64.18;100469.66;5094583;28;20028;-92
2022/10/21 04:52:59;;;;;;;48.85;18.38;;;;;;;7.23;64.67;100476.25;5076422;28;20024;-92
2022/10/21 04:55:24;;;;;;;74.75;19.50;;;;;;;7.15;64.21;100442.38;5076276;28;20030;-92
2022/10/21 04:57:50;;;;;;;69.97;22.60;;;;;;;7.20;63.69;100444.28;5076615;28;20035;-93
2022/10/21 05:00:15;;;;;;;67.28;19.27;;;;;;;7.35;63.65;100467.56;5094223;28;20122;-92
2022/10/21 05:02:41;;;;;;;54.08;20.33;;;;;;;7.47;63.98;100464.41;5076369;28;20055;-91
2022/10/21 05:05:07;;;;;;;52.95;19.10;;;;;;;7.52;64.27;100486.66;5076024;28;20047;-93
2022/10/21 05:07:32;;;;;;;94.35;22.63;;;;;;;7.52;64.10;100486.66;5076332;28;20036;-92
2022/10/21 05:09:57;;;;;;;84.93;22.75;;;;;;;7.56;64.17;100487.72;5093114;28;20034;-93
2022/10/21 05:12:23;;;;;;;64.13;19.67;;;;;;;7.57;63.30;100494.94;5094086;28;20031;-92
2022/10/21 05:14:48;;;;;;;48.42;21.60;;;;;;;7.43;63.83;100494.78;5076982;28;20059;-93
2022/10/21 05:17:14;;;;;;;49.33;23.95;;;;;;;7.47;63.54;100497.81;5076538;28;20036;-93
2022/10/21 05:19:39;;;;;;;43.28;20.58;;;;;;;7.36;63.69;100499.84;5076291;28;20027;-93
2022/10/21 05:22:05;;;;;;;54.22;26.23;;;;;;;6.76;65.21;100495.97;5075684;28;20028;-92
2022/10/21 05:24:30;;;;;;;57.38;25.75;;;;;;;6.92;64.92;100479.22;5075989;28;20024;-91
2022/10/21 05:26:56;;;;;;;78.95;25.70;;;;;;;7.28;64.72;100510.44;5075441;28;20031;-92
2022/10/21 05:29:21;;;;;;;82.45;28.90;;;;;;;7.18;64.29;100493.84;5093839;28;20445;-92
2022/10/21 05:31:47;;;;;;;66.15;26.83;;;;;;;7.06;64.06;100491.38;5075222;28;20024;-93
2022/10/21 05:34:12;;;;;;;68.13;23.92;;;;;;;7.37;64.49;100515.41;5092705;28;20030;-92
2022/10/21 05:36:37;;;;;;;85.90;26.02;;;;;;;7.40;63.98;100506.47;5113796;28;20019;-93
2022/10/21 05:39:03;;;;;;;84.10;28.88;;;;;;;7.39;64.37;100493.69;5114026;28;20508;-93
2022/10/21 05:41:28;;;;;;;108.78;37.88;;;;;;;7.55;65.12;100525.88;5092643;28;20028;-91
2022/10/21 05:43:54;;;;;;;155.25;64.20;;;;;;;7.67;65.54;100510.78;5112747;28;20493;-92
2022/10/21 05:46:19;;;;;;;186.90;82.60;;;;;;;7.84;65.87;100508.41;5079822;28;20024;-92
2022/10/21 05:48:45;;;;;;;160.63;68.28;;;;;;;8.03;66.08;100518.00;5074975;28;20482;-91
2022/10/21 05:51:10;;;;;;;183.20;74.85;;;;;;;8.31;65.98;100540.56;5075072;28;20028;-92
2022/10/21 05:53:36;;;;;;;160.48;64.90;;;;;;;8.43;65.93;100535.44;5074622;28;20035;-92
2022/10/21 05:56:04;;;;;;;125.25;53.50;;;;;;;8.27;66.68;100521.66;5075027;28;20510;-92
2022/10/21 05:58:31;;;;;;;100.50;43.22;;;;;;;8.39;67.51;100543.59;5074738;28;20065;-92
2022/10/21 06:00:57;;;;;;;92.57;39.88;;;;;;;8.52;66.63;100530.91;5092895;28;20024;-91
2022/10/21 06:03:28;;;;;;;49.75;27.52;;;;;;;8.78;66.00;100549.34;5074989;28;20549;-92
2022/10/21 06:05:58;;;;;;;47.60;23.85;;;;;;;8.84;65.79;100554.56;5074632;28;20106;-91
2022/10/21 06:08:24;;;;;;;43.58;22.25;;;;;;;8.78;66.43;100543.75;5074990;28;20036;-91
2022/10/21 06:11:02;;;;;;;49.60;21.67;;;;;;;8.97;66.38;100547.41;5092579;28;20100;-92
2022/10/21 06:13:28;;;;;;;33.70;17.10;;;;;;;9.07;65.94;100552.06;5074565;28;20023;-91
2022/10/21 06:15:53;;;;;;;32.42;17.67;;;;;;;9.09;65.71;100552.59;5074722;28;20077;-87
2022/10/21 06:18:19;;;;;;;35.53;17.40;;;;;;;9.18;65.34;100530.41;5093920;28;20028;-91
2022/10/21 06:20:44;;;;;;;24.20;16.00;;;;;;;9.44;65.25;100544.03;5095031;28;20406;-92
2022/10/21 06:23:11;;;;;;;28.30;15.80;;;;;;;9.74;64.88;100552.25;5094866;28;20105;-92
2022/10/21 06:25:37;;;;;;;33.58;15.07;;;;;;;9.95;64.73;100555.53;5112793;28;20480;-93
2022/10/21 06:28:03;;;;;;;25.13;13.80;;;;;;;10.07;64.00;100546.69;5112403;28;20043;-92
2022/10/21 06:30:28;;;;;;;25.10;14.95;;;;;;;10.04;64.30;100538.94;5094839;28;20050;-92
2022/10/21 06:32:54;;;;;;;26.95;16.80;;;;;;;10.35;62.98;100552.38;5094292;28;20439;-93
2022/10/21 06:35:19;;;;;;;28.67;17.17;;;;;;;10.44;62.79;100541.31;5094790;28;20020;-93
2022/10/21 06:37:45;;;;;;;34.53;17.67;;;;;;;10.24;62.92;100516.19;5112688;28;20509;-93
2022/10/21 06:40:11;;;;;;;30.15;21.15;;;;;;;10.49;63.77;100563.63;5077836;28;20051;-93
2022/10/21 06:42:36;;;;;;;32.65;18.55;;;;;;;10.73;62.43;100560.63;5112665;28;20112;-93
2022/10/21 06:45:02;;;;;;;35.28;19.92;;;;;;;10.93;62.49;100558.59;5112662;28;20032;-92
2022/10/21 06:47:27;;;;;;;33.60;18.58;;;;;;;10.86;62.31;100559.00;5094510;28;20076;-93
2022/10/21 06:49:53;;;;;;;23.77;14.77;;;;;;;10.92;62.88;100556.94;5094408;28;20055;-93
2022/10/21 06:52:19;;;;;;;27.13;14.75;;;;;;;10.89;63.55;100546.38;5094491;28;20020;-91
2022/10/21 06:54:44;;;;;;;26.40;13.32;;;;;;;10.97;62.93;100556.81;5094450;28;20509;-93
2022/10/21 06:57:10;;;;;;;25.55;13.98;;;;;;;10.93;63.10;100544.59;5094370;28;20027;-93
2022/10/21 06:59:35;;;;;;;20.65;13.55;;;;;;;10.89;62.58;100540.75;5094126;28;20022;-92
2022/10/21 07:02:00;;;;;;;19.98;13.73;;;;;;;11.02;62.08;100561.47;5093936;28;20054;-93
2022/10/21 07:04:26;;;;;;;22.05;13.98;;;;;;;11.12;62.21;100563.25;5093894;28;20509;-91
2022/10/21 07:06:52;;;;;;;27.70;14.52;;;;;;;11.30;62.21;100551.09;5094399;28;20030;-93
2022/10/21 07:09:17;;;;;;;19.20;12.75;;;;;;;11.52;60.88;100546.69;5095791;28;20027;-93
2022/10/21 07:11:43;;;;;;;22.20;14.35;;;;;;;11.71;60.18;100552.13;5098760;28;20024;-92
2022/10/21 07:14:10;;;;;;;22.63;13.45;;;;;;;11.81;59.62;100548.25;5116663;28;20032;-93
2022/10/21 07:16:37;;;;;;;22.77;13.45;;;;;;;12.04;59.46;100559.50;5098521;28;20024;-93
2022/10/21 07:19:03;;;;;;;18.30;12.98;;;;;;;12.06;58.85;100529.16;5098369;28;20057;-92
2022/10/21 07:21:30;;;;;;;19.23;13.73;;;;;;;12.24;58.65;100552.56;5098462;28;20497;-91
2022/10/21 07:23:57;;;;;;;21.70;13.07;;;;;;;11.48;60.77;100551.28;5116784;28;20482;-92
2022/10/21 07:26:23;;;;;;;28.38;13.07;;;;;;;11.77;60.22;100547.25;5098148;28;20023;-92
2022/10/21 07:28:49;;;;;;;22.33;13.38;;;;;;;11.61;60.59;100544.81;5116303;28;20047;-93
2022/10/21 07:31:16;;;;;;;18.25;12.30;;;;;;;11.73;59.94;100516.22;5116503;28;20040;-93
2022/10/21 07:33:42;;;;;;;21.20;11.93;;;;;;;12.29;58.41;100540.38;5098016;28;20020;-93
2022/10/21 07:36:11;;;;;;;17.35;11.82;;;;;;;11.83;59.63;100546.00;5098395;28;20114;-94
2022/10/21 07:38:38;;;;;;;20.27;13.63;;;;;;;12.24;59.73;100555.34;5097837;28;20076;-93
2022/10/21 07:41:04;;;;;;;18.65;11.32;;;;;;;12.21;58.12;100517.59;5098029;28;20114;-93
2022/10/21 07:43:30;;;;;;;20.00;10.30;;;;;;;12.47;57.91;100553.38;5098012;28;20027;-93
2022/10/21 07:45:59;;;;;;;18.40;10.50;;;;;;;12.77;56.96;100534.03;5097863;28;20024;-94
2022/10/21 07:48:25;;;;;;;22.60;10.93;;;;;;;12.89;57.57;100544.66;5098074;28;20391;-94
2022/10/21 07:50:50;;;;;;;18.02;11.40;;;;;;;12.89;57.94;100541.00;5098029;28;20037;-93
2022/10/21 07:53:17;;;;;;;17.45;11.73;;;;;;;13.12;56.68;100547.38;5097855;28;20024;-93
2022/10/21 07:55:43;;;;;;;17.85;11.25;;;;;;;13.20;56.39;100540.13;5097863;28;20055;-93
2022/10/21 07:58:08;;;;;;;64.15;37.40;;;;;;;13.13;56.11;100514.47;5097493;28;20038;-93
2022/10/21 08:00:34;;;;;;;90.60;50.33;;;;;;;12.90;57.64;100539.84;5097656;28;20026;-93
2022/10/21 08:02:59;;;;;;;28.48;17.60;;;;;;;13.08;56.77;100548.34;5096720;28;20020;-94
2022/10/21 08:05:25;;;;;;;20.75;11.30;;;;;;;12.95;57.08;100541.69;5094221;28;20055;-94
2022/10/21 08:07:50;;;;;;;47.38;22.17;;;;;;;13.06;57.37;100523.38;5094175;28;20130;-92
2022/10/21 08:10:16;;;;;;;27.45;11.23;;;;;;;13.25;55.99;100523.09;5094290;28;20089;-92
2022/10/21 08:12:41;;;;;;;15.73;11.43;;;;;;;13.56;55.35;100539.06;5094994;28;20413;-92
2022/10/21 08:15:07;;;;;;;18.92;10.50;;;;;;;13.68;55.25;100531.94;5097245;28;20023;-93
2022/10/21 08:17:33;;;;;;;20.48;12.57;;;;;;;13.90;54.62;100528.97;5097808;28;20023;-91
2022/10/21 08:19:58;;;;;;;36.13;14.52;;;;;;;13.73;54.57;100507.31;5097480;28;20024;-91
2022/10/21 08:22:24;;;;;;;38.15;18.98;;;;;;;13.71;54.82;100498.38;5096382;28;20497;-91
2022/10/21 08:24:49;;;;;;;24.70;14.60;;;;;;;14.07;54.72;100532.09;5097309;28;20031;-91
2022/10/21 08:27:15;;;;;;;49.25;23.40;;;;;;;14.01;54.17;100520.19;5096973;28;20128;-91
2022/10/21 08:29:41;;;;;;;40.08;22.60;;;;;;;13.87;54.64;100514.75;5093600;28;20031;-91
2022/10/21 08:32:06;;;;;;;52.75;25.05;;;;;;;14.07;54.25;100535.72;5093740;28;20065;-94
2022/10/21 08:34:32;;;;;;;69.68;32.05;;;;;;;14.11;53.64;100522.63;5093936;28;20493;-94
2022/10/21 08:36:57;;;;;;;35.63;19.50;;;;;;;14.13;54.22;100531.59;5094277;28;20040;-94
2022/10/21 08:39:23;;;;;;;31.70;17.85;;;;;;;13.86;54.07;100505.47;5093647;28;20024;-91
2022/10/21 08:42:11;;;;;;;23.17;14.43;;;;;;;14.20;53.75;100524.63;5093676;28;20418;-92
2022/10/21 08:44:36;;;;;;;28.38;15.13;;;;;;;14.21;53.85;100529.91;5078810;28;20498;-91
2022/10/21 08:47:17;;;;;;;26.80;15.85;;;;;;;13.83;55.13;100527.81;5076541;28;20126;-90
2022/10/21 08:50:11;;;;;;;39.22;19.98;;;;;;;14.17;54.23;100532.56;5076732;28;20111;-91
2022/10/21 08:52:42;;;;;;;26.15;17.23;;;;;;;14.45;52.78;100523.72;5101334;28;20028;-91
2022/10/21 08:55:27;;;;;;;29.75;18.67;;;;;;;14.66;52.42;100517.38;5096771;28;20031;-91
2022/10/21 08:57:53;;;;;;;27.67;16.90;;;;;;;14.56;52.18;100514.91;5096882;28;20080;-91
2022/10/21 09:00:28;;;;;;;34.40;18.90;;;;;;;13.87;54.60;100523.97;5096593;28;20478;-91
2022/10/21 09:03:12;;;;;;;31.13;18.13;;;;;;;14.45;53.15;100515.28;5096607;28;20027;-91
2022/10/21 09:05:45;;;;;;;33.40;19.15;;;;;;;14.52;52.33;100519.56;5096778;28;20509;-91
2022/10/21 09:08:22;;;;;;;26.40;17.90;;;;;;;13.58;54.88;100517.06;5097263;28;20028;-91
2022/10/21 09:11:01;;;;;;;31.48;17.85;;;;;;;13.54;55.37;100513.25;5096814;28;20489;-91
2022/10/21 09:13:32;;;;;;;23.65;16.55;;;;;;;14.17;53.80;100507.25;5096518;28;20046;-90
2022/10/21 09:16:13;;;;;;;19.73;15.48;;;;;;;14.71;52.10;100510.72;5096417;28;20031;-91
2022/10/21 09:18:44;;;;;;;;;;;;;;;14.83;51.74;100508.03;5096960;28;20051;-92
2022/10/21 09:21:15;;;;;;;30.65;16.55;;;;;;;15.20;50.74;100504.69;5096373;28;19915;-92
2022/10/21 09:24:10;;;;;;;25.17;16.13;;;;;;;15.54;49.50;100501.97;5101276;28;20039;-92
2022/10/21 09:26:37;;;;;;;22.77;15.73;;;;;;;15.69;49.40;100503.34;5098681;28;20030;-93
2022/10/21 09:29:24;;;;;;;20.83;15.38;;;;;;;15.50;49.40;100496.19;5096128;28;20548;-91
2022/10/21 09:31:51;;;;;;;26.05;14.38;;;;;;;15.60;48.86;100497.75;5095906;28;20019;-92
2022/10/21 09:35:07;;;;;;;25.08;15.43;;;;;;;15.27;50.19;100492.88;5096280;28;20409;-91
2022/10/21 09:37:50;;;;;;;37.85;15.35;;;;;;;15.47;49.61;100467.84;5078960;28;20040;-91
2022/10/21 09:40:19;;;;;;;40.20;16.65;;;;;;;15.85;49.25;100478.97;5092546;28;20020;-92
2022/10/21 09:45:38;;;;;;;20.90;15.68;;;;;;;15.93;48.32;100482.09;5299528;22;20053;-88
2022/10/21 09:48:41;;;;;;;26.52;15.75;;;;;;;15.63;49.15;100482.16;5054216;28;20032;-85
2022/10/21 09:51:14;;;;;;;32.47;17.17;;;;;;;15.72;49.08;100472.44;5054162;28;20028;-84
2022/10/21 09:53:46;;;;;;;26.52;16.45;;;;;;;15.78;48.59;100467.41;5057390;28;20029;-84
2022/10/21 09:56:20;;;;;;;27.50;16.13;;;;;;;16.01;48.41;100469.88;5056389;28;20020;-83
2022/10/21 09:59:04;;;;;;;24.23;15.65;;;;;;;15.90;48.28;100457.38;5055882;28;20131;-84
2022/10/21 10:01:30;;;;;;;26.35;15.23;;;;;;;16.20;48.00;100452.41;5053625;28;20016;-84
2022/10/21 10:03:56;;;;;;;22.48;15.07;;;;;;;15.98;48.11;100448.00;5071324;28;20504;-83
2022/10/21 10:06:42;;;;;;;30.05;15.90;;;;;;;16.17;48.18;100452.28;5053453;28;20450;-83
2022/10/21 10:09:14;;;;;;;22.65;15.07;;;;;;;16.49;47.65;100447.75;5053635;28;20020;-84
2022/10/21 10:11:54;;;;;;;29.65;16.58;;;;;;;16.47;47.09;100446.44;5053370;28;20020;-84
2022/10/21 10:14:35;;;;;;;23.33;14.82;;;;;;;16.47;46.97;100449.28;5053549;28;20194;-84
2022/10/21 10:17:22;;;;;;;23.83;15.48;;;;;;;16.76;46.20;100438.91;5053579;28;20391;-84
2022/10/21 10:20:03;;;;;;;23.63;15.40;;;;;;;16.32;47.04;100437.50;5053300;28;20024;-84
2022/10/21 10:22:40;;;;;;;29.08;16.10;;;;;;;16.24;47.26;100432.78;5053294;28;20070;-84
2022/10/21 10:25:17;;;;;;;27.73;15.68;;;;;;;16.22;47.30;100435.94;5053300;28;20111;-83
2022/10/21 10:27:48;;;;;;;29.52;15.95;;;;;;;16.56;46.54;100428.22;5053182;28;20024;-84
2022/10/21 10:30:15;;;;;;;23.60;14.18;;;;;;;16.83;45.87;100408.91;5052878;28;20027;-84
2022/10/21 10:32:42;;;;;;;18.08;14.25;;;;;;;17.05;45.65;100420.91;5053178;28;20521;-84
2022/10/21 10:35:26;;;;;;;23.75;16.38;;;;;;;16.74;46.05;100405.38;5043853;28;20039;-84
2022/10/21 10:37:53;;;;;;;150.18;133.77;;;;;;;16.73;46.25;100411.38;5033467;28;20136;-84
2022/10/21 10:40:27;;;;;;;1709.72;719.20;;;;;;;17.06;45.07;100387.81;5051290;28;20108;-84
2022/10/21 10:43:02;;;;;;;143.55;88.30;;;;;;;17.49;43.93;100383.41;5033646;28;20536;-84
2022/10/21 10:45:28;;;;;;;1259.70;764.28;;;;;;;17.30;44.60;100384.09;5038976;28;20064;-84
2022/10/21 10:47:57;;;;;;;1699.32;921.42;;;;;;;17.22;45.04;100396.38;5053569;28;20103;-84
2022/10/21 10:50:45;;;;;;;139.95;92.32;;;;;;;17.19;44.43;100382.94;5053469;28;20029;-84
2022/10/21 10:53:16;;;;;;;26.40;17.35;;;;;;;16.86;45.07;100389.59;5071633;28;20027;-84
2022/10/21 10:55:44;;;;;;;24.23;16.52;;;;;;;16.96;45.10;100372.16;5053501;28;20024;-84
2022/10/21 10:58:10;;;;;;;632.90;349.25;;;;;;;16.74;45.26;100365.00;5053274;28;20040;-84
2022/10/21 11:00:41;;;;;;;575.88;328.15;;;;;;;16.88;46.07;100364.63;5053221;28;20024;-84
2022/10/21 11:03:12;;;;;;;59.95;35.30;;;;;;;16.49;46.03;100365.88;5062839;28;20037;-84
2022/10/21 11:05:48;;;;;;;135.68;62.38;;;;;;;17.04;45.32;100359.09;5051995;28;20028;-84
2022/10/21 11:08:24;;;;;;;23.65;16.80;;;;;;;17.30;44.75;100350.16;5053586;28;20402;-84
2022/10/21 11:10:53;;;;;;;24.50;15.20;;;;;;;17.67;44.26;100343.50;5071221;28;20063;-83
2022/10/21 11:13:21;;;;;;;145.10;61.20;;;;;;;17.83;43.39;100341.53;5053137;28;20085;-83
2022/10/21 11:16:10;;;;;;;30.40;19.73;;;;;;;17.93;42.93;100336.50;5052952;28;20031;-84
2022/10/21 11:18:57;;;;;;;169.65;83.35;;;;;;;17.73;43.22;100333.56;5050986;28;20086;-83
2022/10/21 11:21:52;;;;;;;57.83;30.08;;;;;;;17.59;43.48;100336.00;5059583;28;20418;-83
2022/10/21 11:24:50;;;;;;;28.42;16.95;;;;;;;18.02;43.18;100331.50;5028505;28;20136;-83
2022/10/21 11:27:26;;;;;;;24.80;16.25;;;;;;;18.15;42.63;100339.94;5033026;28;20415;-84
2022/10/21 11:30:17;;;;;;;26.50;16.17;;;;;;;17.85;42.37;100327.03;5032879;28;20142;-83